createdAt,value
2023-05-25T00:01:17.603Z,100.00
2023-05-25T00:03:45.996Z,100.00
2023-05-25T00:06:15.566Z,100.00
2023-05-25T00:08:43.596Z,100.00
2023-05-25T00:11:12.414Z,100.00
2023-05-25T00:13:40.644Z,100.00
2023-05-25T00:16:08.650Z,100.00
2023-05-25T00:18:41.290Z,100.00
2023-05-25T00:21:10.748Z,100.00
2023-05-25T00:23:38.755Z,100.00
2023-05-25T00:26:06.695Z,100.00
2023-05-25T00:28:34.756Z,100.00
2023-05-25T00:31:02.990Z,100.00
2023-05-25T00:33:31.135Z,100.00
2023-05-25T00:36:00.260Z,100.00
2023-05-25T00:38:28.227Z,100.00
2023-05-25T00:40:58.932Z,100.00
2023-05-25T00:43:26.948Z,100.00
2023-05-25T00:45:56.379Z,100.00
2023-05-25T00:48:26.718Z,100.00
2023-05-25T00:51:00.079Z,100.00
2023-05-25T00:53:28.640Z,100.00
2023-05-25T00:56:14.272Z,100.00
2023-05-25T00:58:46.261Z,100.00
2023-05-25T01:01:16.223Z,100.00
2023-05-25T01:03:48.464Z,100.00
2023-05-25T01:06:17.710Z,100.00
2023-05-25T01:08:51.834Z,100.00
2023-05-25T01:11:26.691Z,100.00
2023-05-25T01:13:54.965Z,100.00
2023-05-25T01:16:26.066Z,100.00
2023-05-25T01:18:54.350Z,100.00
2023-05-25T01:21:29.107Z,100.00
2023-05-25T01:24:12.171Z,100.00
2023-05-25T01:26:48.718Z,100.00
2023-05-25T01:29:20.205Z,100.00
2023-05-25T01:31:48.414Z,100.00
2023-05-25T01:34:17.441Z,100.00
2023-05-25T01:36:45.672Z,100.00
2023-05-25T01:39:14.178Z,100.00
2023-05-25T01:41:42.377Z,100.00
2023-05-25T01:44:11.018Z,100.00
2023-05-25T01:46:40.438Z,100.00
2023-05-25T01:49:32.672Z,100.00
2023-05-25T01:52:12.967Z,100.00
2023-05-25T01:54:47.582Z,100.00
2023-05-25T01:57:18.690Z,100.00
2023-05-25T01:59:48.411Z,100.00
2023-05-25T02:02:18.993Z,100.00
2023-05-25T02:04:47.733Z,100.00
2023-05-25T02:07:17.280Z,100.00
2023-05-25T02:09:45.973Z,100.00
2023-05-25T02:12:14.170Z,100.00
2023-05-25T02:14:42.209Z,100.00
2023-05-25T02:17:12.731Z,100.00
2023-05-25T02:19:40.881Z,100.00
2023-05-25T02:22:08.886Z,100.00
2023-05-25T02:24:38.136Z,100.00
2023-05-25T02:27:06.961Z,100.00
2023-05-25T02:29:35.130Z,100.00
2023-05-25T02:32:03.176Z,100.00
2023-05-25T02:34:31.219Z,100.00
2023-05-25T02:36:59.254Z,100.00
2023-05-25T02:39:28.025Z,100.00
2023-05-25T02:41:56.688Z,100.00
2023-05-25T02:44:24.883Z,100.00
2023-05-25T02:46:53.244Z,100.00
2023-05-25T02:49:21.418Z,100.00
2023-05-25T02:51:49.589Z,100.00
2023-05-25T02:54:17.642Z,100.00
2023-05-25T02:56:46.644Z,100.00
2023-05-25T02:59:15.939Z,100.00
2023-05-25T03:01:44.054Z,100.00
2023-05-25T03:04:12.096Z,100.00
2023-05-25T03:06:41.011Z,100.00
2023-05-25T03:09:15.127Z,100.00
2023-05-25T03:11:43.592Z,100.00
2023-05-25T03:14:14.719Z,100.00
2023-05-25T03:16:44.896Z,100.00
2023-05-25T03:19:13.534Z,100.00
2023-05-25T03:21:42.159Z,100.00
2023-05-25T03:24:10.289Z,100.00
2023-05-25T03:26:39.033Z,100.00
2023-05-25T03:29:07.551Z,100.00
2023-05-25T03:31:36.043Z,100.00
2023-05-25T03:34:04.574Z,100.00
2023-05-25T03:36:34.069Z,100.00
2023-05-25T03:39:02.136Z,100.00
2023-05-25T03:41:30.578Z,100.00
2023-05-25T03:43:58.736Z,100.00
2023-05-25T03:46:27.164Z,100.00
2023-05-25T03:48:57.705Z,100.00
2023-05-25T03:51:25.939Z,100.00
2023-05-25T03:53:54.073Z,100.00
2023-05-25T03:56:23.083Z,100.00
2023-05-25T03:58:52.856Z,100.00
2023-05-25T04:01:21.004Z,100.00
2023-05-25T04:03:49.200Z,100.00
2023-05-25T04:06:19.394Z,100.00
2023-05-25T04:08:48.115Z,100.00
2023-05-25T04:11:16.271Z,100.00
2023-05-25T04:13:44.380Z,100.00
2023-05-25T04:16:13.944Z,100.00
2023-05-25T04:18:42.852Z,100.00
2023-05-25T04:21:10.983Z,100.00
2023-05-25T04:23:39.023Z,100.00
2023-05-25T04:26:10.379Z,100.00
2023-05-25T04:28:43.695Z,100.00
2023-05-25T04:31:22.037Z,100.00
2023-05-25T04:34:29.784Z,100.00
2023-05-25T04:37:13.330Z,100.00
2023-05-25T04:39:41.453Z,100.00
2023-05-25T04:42:09.718Z,100.00
2023-05-25T04:44:40.121Z,100.00
2023-05-25T04:47:08.771Z,100.00
2023-05-25T04:49:37.222Z,100.00
2023-05-25T04:52:06.282Z,100.00
2023-05-25T04:54:34.614Z,100.00
2023-05-25T04:57:03.746Z,100.00
2023-05-25T04:59:33.189Z,100.00
2023-05-25T05:02:01.929Z,100.00
2023-05-25T05:04:30.537Z,100.00
2023-05-25T05:06:59.920Z,100.00
2023-05-25T05:09:30.067Z,100.00
2023-05-25T05:12:01.033Z,100.00
2023-05-25T05:14:29.873Z,100.00
2023-05-25T05:16:58.150Z,100.00
2023-05-25T05:19:26.425Z,100.00
2023-05-25T05:21:54.838Z,100.00
2023-05-25T05:24:23.023Z,100.00
2023-05-25T05:26:58.118Z,100.00
2023-05-25T05:29:38.800Z,100.00
2023-05-25T05:32:07.504Z,100.00
2023-05-25T05:34:36.286Z,100.00
2023-05-25T05:37:08.150Z,100.00
2023-05-25T05:39:37.465Z,100.00
2023-05-25T05:42:07.085Z,100.00
2023-05-25T05:44:35.945Z,100.00
2023-05-25T05:47:04.279Z,100.00
2023-05-25T05:49:34.468Z,100.00
2023-05-25T05:52:03.678Z,100.00
2023-05-25T05:54:32.189Z,100.00
2023-05-25T05:57:06.609Z,100.00
2023-05-25T05:59:34.974Z,100.00
2023-05-25T06:02:03.607Z,100.00
2023-05-25T06:04:32.766Z,100.00
2023-05-25T06:07:01.101Z,100.00
2023-05-25T06:09:29.595Z,100.00
2023-05-25T06:12:00.894Z,100.00
2023-05-25T06:14:29.431Z,100.00
2023-05-25T06:17:00.130Z,100.00
2023-05-25T06:19:33.648Z,100.00
2023-05-25T06:22:02.503Z,100.00
2023-05-25T06:24:31.708Z,100.00
2023-05-25T06:27:05.553Z,100.00
2023-05-25T06:29:34.454Z,100.00
2023-05-25T06:32:03.136Z,100.00
2023-05-25T06:34:32.386Z,100.00
2023-05-25T06:37:04.460Z,100.00
2023-05-25T06:39:32.893Z,100.00
2023-05-25T06:42:01.749Z,100.00
2023-05-25T06:44:32.325Z,100.00
2023-05-25T06:47:03.650Z,100.00
2023-05-25T06:49:32.955Z,100.00
2023-05-25T06:52:01.120Z,100.00
2023-05-25T06:54:29.738Z,100.00
2023-05-25T06:56:58.222Z,100.00
2023-05-25T06:59:27.882Z,100.00
2023-05-25T07:01:56.514Z,100.00
2023-05-25T07:04:25.226Z,100.00
2023-05-25T07:06:53.412Z,100.00
2023-05-25T07:09:27.933Z,100.00
2023-05-25T07:11:56.325Z,100.00
2023-05-25T07:14:24.721Z,100.00
2023-05-25T07:16:53.870Z,100.00
2023-05-25T07:19:22.235Z,100.00
2023-05-25T07:21:50.571Z,100.00
2023-05-25T07:24:19.325Z,100.00
2023-05-25T07:26:48.974Z,100.00
2023-05-25T07:29:17.539Z,100.00
2023-05-25T07:31:46.572Z,100.00
2023-05-25T07:34:15.730Z,100.00
2023-05-25T07:36:44.619Z,100.00
2023-05-25T07:39:13.354Z,100.00
2023-05-25T07:41:41.391Z,100.00
2023-05-25T07:44:09.793Z,100.00
2023-05-25T07:46:38.833Z,100.00
2023-05-25T07:49:17.088Z,100.00
2023-05-25T07:51:46.114Z,100.00
2023-05-25T07:54:14.599Z,100.00
2023-05-25T07:56:45.522Z,100.00
2023-05-25T07:59:16.748Z,100.00
2023-05-25T08:01:45.479Z,100.00
2023-05-25T08:04:16.496Z,100.00
2023-05-25T08:06:46.995Z,100.00
2023-05-25T08:09:15.686Z,100.00
2023-05-25T08:11:45.896Z,100.00
2023-05-25T08:14:15.329Z,100.00
2023-05-25T08:16:44.339Z,100.00
2023-05-25T08:19:12.863Z,100.00
2023-05-25T08:21:42.553Z,100.00
2023-05-25T08:24:11.079Z,100.00
2023-05-25T08:26:53.716Z,100.00
2023-05-25T08:29:25.573Z,100.00
2023-05-25T08:31:54.326Z,100.00
2023-05-25T08:34:25.719Z,100.00
2023-05-25T08:37:00.745Z,100.00
2023-05-25T08:39:34.083Z,100.00
2023-05-25T08:42:04.235Z,100.00
2023-05-25T08:44:35.526Z,100.00
2023-05-25T08:47:18.427Z,100.00
2023-05-25T08:49:49.493Z,100.00
2023-05-25T08:52:23.061Z,100.00
2023-05-25T08:54:55.694Z,100.00
2023-05-25T08:57:53.498Z,100.00
2023-05-25T09:00:36.490Z,100.00
2023-05-25T09:03:24.223Z,100.00
2023-05-25T09:06:00.157Z,100.00
2023-05-25T09:08:29.006Z,100.00
2023-05-25T09:10:58.748Z,100.00
2023-05-25T09:13:31.499Z,100.00
2023-05-25T09:16:02.190Z,99.79
2023-05-25T09:18:30.747Z,97.84
2023-05-25T09:20:59.987Z,92.56
2023-05-25T09:23:30.582Z,91.53
2023-05-25T09:25:59.418Z,88.70
2023-05-25T09:28:27.985Z,86.34
2023-05-25T09:31:06.501Z,88.94
2023-05-25T09:33:43.459Z,89.92
2023-05-25T09:36:55.762Z,89.85
2023-05-25T09:39:26.134Z,92.52
2023-05-25T09:41:58.221Z,90.35
2023-05-25T09:44:27.367Z,93.39
2023-05-25T09:46:56.665Z,94.79
2023-05-25T09:49:27.083Z,89.33
2023-05-25T09:51:57.516Z,85.78
2023-05-25T09:54:26.713Z,81.39
2023-05-25T09:56:55.399Z,81.80
2023-05-25T09:59:23.849Z,80.41
2023-05-25T10:01:54.019Z,78.02
2023-05-25T10:04:22.679Z,78.60
2023-05-25T10:06:51.907Z,78.82
2023-05-25T10:09:21.027Z,77.41
2023-05-25T10:11:51.913Z,78.20
2023-05-25T10:14:29.127Z,78.98
2023-05-25T10:16:59.851Z,74.16
2023-05-25T10:19:43.335Z,76.96
2023-05-25T10:22:25.939Z,78.46
2023-05-25T10:24:58.944Z,77.20
2023-05-25T10:27:37.889Z,73.93
2023-05-25T10:30:08.014Z,73.53
2023-05-25T10:32:39.749Z,78.68
2023-05-25T10:35:10.383Z,77.25
2023-05-25T10:37:40.290Z,75.91
2023-05-25T10:40:09.998Z,70.35
2023-05-25T10:42:39.428Z,68.70
2023-05-25T10:45:09.571Z,70.64
2023-05-25T10:47:46.782Z,63.63
2023-05-25T10:50:29.069Z,62.17
2023-05-25T10:53:18.589Z,61.02
2023-05-25T10:56:01.893Z,59.89
2023-05-25T10:58:32.294Z,55.18
2023-05-25T11:01:12.508Z,54.72
2023-05-25T11:03:44.265Z,53.03
2023-05-25T11:06:15.992Z,50.03
2023-05-25T11:09:05.950Z,47.76
2023-05-25T11:11:43.628Z,45.56
2023-05-25T11:14:33.094Z,46.13
2023-05-25T11:17:18.377Z,47.68
2023-05-25T11:19:52.211Z,48.56
2023-05-25T11:22:31.887Z,46.04
2023-05-25T11:25:01.994Z,43.91
2023-05-25T11:27:32.194Z,42.85
2023-05-25T11:30:00.785Z,43.61
2023-05-25T11:32:30.316Z,44.05
2023-05-25T11:35:01.616Z,42.26
2023-05-25T11:37:31.923Z,41.24
2023-05-25T11:40:00.809Z,39.27
2023-05-25T11:42:31.888Z,36.76
2023-05-25T11:45:03.706Z,36.94
2023-05-25T11:47:34.050Z,38.97
2023-05-25T11:50:03.719Z,40.78
2023-05-25T11:52:35.194Z,40.95
2023-05-25T11:55:22.118Z,39.96
2023-05-25T11:57:58.357Z,39.19
2023-05-25T12:00:28.667Z,41.30
2023-05-25T12:02:57.822Z,41.02
2023-05-25T12:05:26.658Z,41.04
2023-05-25T12:07:55.313Z,41.01
2023-05-25T12:10:26.155Z,37.67
2023-05-25T12:12:59.145Z,38.53
2023-05-25T12:15:30.696Z,37.69
2023-05-25T12:17:59.543Z,38.50
2023-05-25T12:20:28.384Z,39.05
2023-05-25T12:23:01.439Z,39.35
2023-05-25T12:25:38.735Z,39.66
2023-05-25T12:28:20.110Z,39.76
2023-05-25T12:30:49.677Z,39.56
2023-05-25T12:33:18.983Z,38.89
2023-05-25T12:35:50.880Z,38.57
2023-05-25T12:38:28.721Z,37.96
2023-05-25T12:41:09.181Z,36.21
2023-05-25T12:43:44.173Z,35.74
2023-05-25T12:46:30.045Z,36.87
2023-05-25T12:49:01.132Z,37.22
2023-05-25T12:51:42.986Z,35.93
2023-05-25T12:54:15.386Z,35.29
2023-05-25T12:56:57.401Z,35.13
2023-05-25T12:59:26.412Z,35.50
2023-05-25T13:01:57.022Z,35.04
2023-05-25T13:04:28.798Z,34.10
2023-05-25T13:06:58.079Z,33.66
2023-05-25T13:09:29.005Z,31.61
2023-05-25T13:12:02.005Z,32.90
2023-05-25T13:14:32.574Z,33.24
2023-05-25T13:17:01.344Z,33.83
2023-05-25T13:19:30.759Z,33.56
2023-05-25T13:21:59.078Z,32.84
2023-05-25T13:24:30.385Z,32.67
2023-05-25T13:26:58.715Z,32.48
2023-05-25T13:29:29.012Z,34.44
2023-05-25T13:31:57.783Z,35.03
2023-05-25T13:34:26.069Z,34.94
2023-05-25T13:36:55.057Z,34.69
2023-05-25T13:39:23.700Z,34.80
2023-05-25T13:41:52.017Z,34.06
2023-05-25T13:44:20.372Z,33.49
2023-05-25T13:46:49.021Z,33.32
2023-05-25T13:49:19.944Z,33.39
2023-05-25T13:51:48.307Z,33.05
2023-05-25T13:54:16.596Z,33.30
2023-05-25T13:56:45.763Z,33.10
2023-05-25T13:59:14.188Z,32.83
2023-05-25T14:01:42.439Z,33.45
2023-05-25T14:04:11.959Z,35.15
2023-05-25T14:06:40.209Z,35.81
2023-05-25T14:09:10.234Z,34.73
2023-05-25T14:11:39.826Z,33.51
2023-05-25T14:14:13.844Z,33.75
2023-05-25T14:16:44.897Z,33.79
2023-05-25T14:19:15.394Z,34.03
2023-05-25T14:21:43.733Z,33.60
2023-05-25T14:24:12.210Z,32.46
2023-05-25T14:26:42.714Z,32.02
2023-05-25T14:29:13.073Z,32.51
2023-05-25T14:31:42.133Z,33.57
2023-05-25T14:34:10.697Z,34.77
2023-05-25T14:36:38.983Z,35.05
2023-05-25T14:39:07.131Z,35.49
2023-05-25T14:41:35.286Z,36.26
2023-05-25T14:44:03.365Z,36.41
2023-05-25T14:46:33.904Z,37.13
2023-05-25T14:49:02.250Z,37.84
2023-05-25T14:51:30.944Z,39.47
2023-05-25T14:54:01.597Z,40.43
2023-05-25T14:56:29.787Z,40.74
2023-05-25T14:58:57.998Z,39.86
2023-05-25T15:01:26.494Z,38.60
2023-05-25T15:03:55.104Z,37.39
2023-05-25T15:06:23.853Z,37.17
2023-05-25T15:08:52.132Z,37.06
2023-05-25T15:11:20.725Z,39.39
2023-05-25T15:13:49.010Z,40.77
2023-05-25T15:16:17.516Z,42.20
2023-05-25T15:18:45.811Z,44.54
2023-05-25T15:21:16.445Z,47.84
2023-05-25T15:23:45.680Z,49.34
2023-05-25T15:26:14.214Z,50.53
2023-05-25T15:28:42.318Z,51.98
2023-05-25T15:31:13.433Z,54.37
2023-05-25T15:33:51.572Z,56.97
2023-05-25T15:36:25.398Z,59.47
2023-05-25T15:38:54.635Z,61.00
2023-05-25T15:41:23.453Z,62.02
2023-05-25T15:43:57.990Z,62.72
2023-05-25T15:46:32.036Z,62.64
2023-05-25T15:49:00.236Z,65.77
2023-05-25T15:51:28.612Z,70.37
2023-05-25T15:53:57.090Z,74.86
2023-05-25T15:56:25.174Z,78.44
2023-05-25T15:58:53.527Z,79.42
2023-05-25T16:01:23.890Z,80.16
2023-05-25T16:03:52.022Z,81.80
2023-05-25T16:06:20.769Z,81.48
2023-05-25T16:08:48.943Z,82.63
2023-05-25T16:11:17.220Z,81.67
2023-05-25T16:13:45.449Z,78.21
2023-05-25T16:16:13.706Z,79.01
2023-05-25T16:18:42.235Z,78.62
2023-05-25T16:21:10.377Z,77.71
2023-05-25T16:23:40.069Z,78.61
2023-05-25T16:26:10.223Z,79.33
2023-05-25T16:28:38.808Z,80.85
2023-05-25T16:31:07.480Z,81.28
2023-05-25T16:33:35.789Z,78.74
2023-05-25T16:36:04.105Z,81.24
2023-05-25T16:38:32.305Z,82.22
2023-05-25T16:41:00.553Z,84.52
2023-05-25T16:43:29.252Z,88.43
2023-05-25T16:45:57.388Z,91.12
2023-05-25T16:48:25.585Z,95.19
2023-05-25T16:50:53.580Z,97.53
2023-05-25T16:53:21.535Z,97.05
2023-05-25T16:55:49.605Z,99.73
2023-05-25T16:58:17.921Z,100.00
2023-05-25T17:00:45.927Z,97.28
2023-05-25T17:03:14.250Z,96.49
2023-05-25T17:05:42.528Z,98.40
2023-05-25T17:08:10.811Z,98.61
2023-05-25T17:10:38.927Z,97.93
2023-05-25T17:13:06.981Z,97.00
2023-05-25T17:15:35.168Z,96.48
2023-05-25T17:18:03.461Z,96.87
2023-05-25T17:20:31.677Z,95.69
2023-05-25T17:22:59.824Z,99.70
2023-05-25T17:25:28.332Z,99.70
2023-05-25T17:27:56.540Z,99.58
2023-05-25T17:30:24.614Z,99.61
2023-05-25T17:32:54.005Z,99.64
2023-05-25T17:35:22.072Z,99.82
2023-05-25T17:37:50.659Z,100.00
2023-05-25T17:40:18.756Z,100.00
2023-05-25T17:42:46.948Z,100.00
2023-05-25T17:45:15.022Z,100.00
2023-05-25T17:47:43.223Z,100.00
2023-05-25T17:50:11.459Z,100.00
2023-05-25T17:52:39.588Z,100.00
2023-05-25T17:55:08.375Z,100.00
2023-05-25T17:57:36.919Z,100.00
2023-05-25T18:00:05.768Z,100.00
2023-05-25T18:02:40.825Z,100.00
2023-05-25T18:05:09.171Z,100.00
2023-05-25T18:07:37.322Z,100.00
2023-05-25T18:10:05.961Z,100.00
2023-05-25T18:12:34.182Z,100.00
2023-05-25T18:15:02.583Z,100.00
2023-05-25T18:17:30.739Z,100.00
2023-05-25T18:19:58.894Z,100.00
2023-05-25T18:22:27.012Z,100.00
2023-05-25T18:24:55.056Z,100.00
2023-05-25T18:27:23.169Z,100.00
2023-05-25T18:29:51.211Z,100.00
2023-05-25T18:32:19.349Z,100.00
2023-05-25T18:34:48.485Z,100.00
2023-05-25T18:37:16.747Z,100.00
2023-05-25T18:39:45.019Z,100.00
2023-05-25T18:42:13.122Z,100.00
2023-05-25T18:44:41.787Z,100.00
2023-05-25T18:47:11.063Z,100.00
2023-05-25T18:49:39.191Z,100.00
2023-05-25T18:52:08.920Z,100.00
2023-05-25T18:54:39.396Z,100.00
2023-05-25T18:57:07.643Z,100.00
2023-05-25T18:59:35.836Z,100.00
2023-05-25T19:02:04.299Z,100.00
2023-05-25T19:04:32.701Z,100.00
2023-05-25T19:07:00.870Z,100.00
2023-05-25T19:09:29.069Z,100.00
2023-05-25T19:11:57.155Z,100.00
2023-05-25T19:14:25.297Z,100.00
2023-05-25T19:16:53.621Z,100.00
2023-05-25T19:19:21.709Z,100.00
2023-05-25T19:21:49.884Z,100.00
2023-05-25T19:24:21.027Z,100.00
2023-05-25T19:26:49.905Z,100.00
2023-05-25T19:29:18.234Z,100.00
2023-05-25T19:31:46.400Z,100.00
2023-05-25T19:34:14.583Z,100.00
2023-05-25T19:36:42.678Z,100.00
2023-05-25T19:39:10.893Z,100.00
2023-05-25T19:41:38.998Z,100.00
2023-05-25T19:44:07.694Z,100.00
2023-05-25T19:46:39.197Z,100.00
2023-05-25T19:49:07.584Z,100.00
2023-05-25T19:51:36.823Z,100.00
2023-05-25T19:54:04.883Z,100.00
2023-05-25T19:56:32.915Z,100.00
2023-05-25T19:59:00.999Z,100.00
2023-05-25T20:01:29.143Z,100.00
2023-05-25T20:03:57.703Z,100.00
2023-05-25T20:06:25.836Z,100.00
2023-05-25T20:08:53.962Z,100.00
2023-05-25T20:11:21.884Z,100.00
2023-05-25T20:13:49.918Z,100.00
2023-05-25T20:16:18.007Z,100.00
2023-05-25T20:18:46.042Z,100.00
2023-05-25T20:21:14.390Z,100.00
2023-05-25T20:23:42.423Z,100.00
2023-05-25T20:26:10.612Z,100.00
2023-05-25T20:28:38.575Z,100.00
2023-05-25T20:31:06.866Z,100.00
2023-05-25T20:33:35.155Z,100.00
2023-05-25T20:36:03.583Z,100.00
2023-05-25T20:38:31.651Z,100.00
2023-05-25T20:40:59.760Z,100.00
2023-05-25T20:43:27.851Z,100.00
2023-05-25T20:45:55.901Z,100.00
2023-05-25T20:48:23.894Z,100.00
2023-05-25T20:50:51.926Z,100.00
2023-05-25T20:53:19.939Z,100.00
2023-05-25T20:55:48.091Z,100.00
2023-05-25T20:58:16.187Z,100.00
2023-05-25T21:00:46.457Z,100.00
2023-05-25T21:03:14.602Z,100.00
2023-05-25T21:05:43.046Z,100.00
2023-05-25T21:08:11.942Z,100.00
2023-05-25T21:10:41.197Z,100.00
2023-05-25T21:13:09.231Z,100.00
2023-05-25T21:15:37.296Z,100.00
2023-05-25T21:18:07.058Z,100.00
2023-05-25T21:20:36.078Z,100.00
2023-05-25T21:23:04.055Z,100.00
2023-05-25T21:25:32.131Z,100.00
2023-05-25T21:28:00.295Z,100.00
2023-05-25T21:30:28.357Z,100.00
2023-05-25T21:32:56.483Z,100.00
2023-05-25T21:35:24.672Z,100.00
2023-05-25T21:37:52.648Z,100.00
2023-05-25T21:40:20.663Z,100.00
2023-05-25T21:42:51.110Z,100.00
2023-05-25T21:45:19.973Z,100.00
2023-05-25T21:47:48.030Z,100.00
2023-05-25T21:50:16.315Z,100.00
2023-05-25T21:52:44.235Z,100.00
2023-05-25T21:55:12.526Z,100.00
2023-05-25T21:57:40.813Z,100.00
2023-05-25T22:00:10.926Z,100.00
2023-05-25T22:02:41.595Z,100.00
2023-05-25T22:05:10.379Z,100.00
2023-05-25T22:07:38.429Z,100.00
2023-05-25T22:10:07.572Z,100.00
2023-05-25T22:12:35.562Z,100.00
2023-05-25T22:15:04.588Z,100.00
2023-05-25T22:17:32.776Z,100.00
2023-05-25T22:20:07.835Z,100.00
2023-05-25T22:22:37.539Z,100.00
2023-05-25T22:25:06.197Z,100.00
2023-05-25T22:27:34.271Z,100.00
2023-05-25T22:30:02.528Z,100.00
2023-05-25T22:32:30.767Z,100.00
2023-05-25T22:34:58.871Z,100.00
2023-05-25T22:37:26.982Z,100.00
2023-05-25T22:39:54.981Z,100.00
2023-05-25T22:42:23.085Z,100.00
2023-05-25T22:44:51.356Z,100.00
2023-05-25T22:47:19.696Z,100.00
2023-05-25T22:49:47.694Z,100.00
2023-05-25T22:52:15.883Z,100.00
2023-05-25T22:54:44.031Z,100.00
2023-05-25T22:57:12.135Z,100.00
2023-05-25T22:59:40.125Z,100.00
2023-05-25T23:02:08.417Z,100.00
2023-05-25T23:04:36.658Z,100.00
2023-05-25T23:07:04.883Z,100.00
2023-05-25T23:09:32.846Z,100.00
2023-05-25T23:12:01.817Z,100.00
2023-05-25T23:14:30.513Z,100.00
2023-05-25T23:16:58.571Z,100.00
2023-05-25T23:19:26.565Z,100.00
2023-05-25T23:21:54.644Z,100.00
2023-05-25T23:24:22.649Z,100.00
2023-05-25T23:26:50.746Z,100.00
2023-05-25T23:29:18.717Z,100.00
2023-05-25T23:31:47.306Z,100.00
2023-05-25T23:34:15.761Z,100.00
2023-05-25T23:36:43.902Z,100.00
2023-05-25T23:39:13.026Z,100.00
2023-05-25T23:41:41.219Z,100.00
2023-05-25T23:44:09.153Z,100.00
2023-05-25T23:46:37.177Z,100.00
2023-05-25T23:49:05.119Z,100.00
2023-05-25T23:51:33.247Z,100.00
2023-05-25T23:54:01.124Z,100.00
2023-05-25T23:56:29.142Z,100.00
2023-05-25T23:58:57.130Z,100.00
